Time;durP1;ratioP1;P1;durP2;ratioP2;P2;SDS_P1;SDS_P2;PMS_P1;PMS_P2;Temp;Humidity;BMP_temperature;BMP_pressure;BME280_temperature;BME280_humidity;BME280_pressure;Samples;Min_cycle;Max_cycle;Signal;HPM_P1;HPM_P2
2023/11/06 00:01:03;;;;;;;1.87;0.23;;;;;;;;;;4980551;28;20226;-57
2023/11/06 00:03:30;;;;;;;0.20;0.17;;;;;;;;;;4983796;28;20251;-57
2023/11/06 00:05:57;;;;;;;0.60;0.20;;;;;;;;;;4971953;28;20900;-56
2023/11/06 00:08:25;;;;;;;0.20;0.20;;;;;;;;;;4970585;28;20310;-56
2023/11/06 00:10:53;;;;;;;0.10;0.10;;;;;;;;;;4982611;28;20206;-57
2023/11/06 00:13:22;;;;;;;0.10;0.10;;;;;;;;;;4956553;29;20235;-57
2023/11/06 00:15:49;;;;;;;0.23;0.23;;;;;;;;;;4962682;28;20210;-57
2023/11/06 00:18:16;;;;;;;0.37;0.10;;;;;;;;;;4985442;28;20743;-57
2023/11/06 00:20:44;;;;;;;0.20;0.10;;;;;;;;;;4982444;28;20215;-57
2023/11/06 00:23:11;;;;;;;0.20;0.20;;;;;;;;;;4981896;28;20271;-57
2023/11/06 00:25:39;;;;;;;0.20;0.20;;;;;;;;;;4988403;28;20233;-57
2023/11/06 00:28:06;;;;;;;0.30;0.23;;;;;;;;;;4975183;28;20379;-58
2023/11/06 00:30:35;;;;;;;0.83;0.20;;;;;;;;;;4974495;28;20198;-57
2023/11/06 00:33:02;;;;;;;0.27;0.20;;;;;;;;;;4984159;28;20254;-57
2023/11/06 00:35:29;;;;;;;0.17;0.13;;;;;;;;;;4994188;28;20215;-57
2023/11/06 00:37:56;;;;;;;0.10;0.10;;;;;;;;;;4985910;28;20232;-57
2023/11/06 00:40:24;;;;;;;0.90;0.20;;;;;;;;;;4974817;28;20231;-56
2023/11/06 00:42:51;;;;;;;0.20;0.20;;;;;;;;;;4973463;28;20332;-57
2023/11/06 00:45:18;;;;;;;0.27;0.20;;;9.30;99.90;;;;;;4985289;28;20275;-57
2023/11/06 00:47:47;;;;;;;0.37;0.30;;;;;;;;;;4982656;28;20234;-57
2023/11/06 00:50:14;;;;;;;0.17;0.13;;;;;;;;;;4984556;28;20247;-58
2023/11/06 00:52:42;;;;;;;0.10;0.10;;;;;;;;;;4980943;28;20706;-57
2023/11/06 00:55:09;;;;;;;0.20;0.20;;;;;;;;;;4981937;28;20258;-57
2023/11/06 00:57:37;;;;;;;0.27;0.27;;;;;;;;;;4994073;28;20219;-57
2023/11/06 01:00:10;;;;;;;0.10;0.10;;;;;;;;;;4983877;28;20209;-56
2023/11/06 01:02:37;;;;;;;0.20;0.20;;;;;;;;;;4985870;28;20666;-56
2023/11/06 01:05:06;;;;;;;0.30;0.20;;;;;;;;;;4987609;28;20368;-58
2023/11/06 01:07:33;;;;;;;1.50;0.17;;;;;;;;;;4985949;28;20220;-56
2023/11/06 01:10:01;;;;;;;0.20;0.20;;;;;;;;;;4994186;28;20296;-57
2023/11/06 01:12:28;;;;;;;0.23;0.23;;;;;;;;;;4983136;28;20207;-56
2023/11/06 01:15:16;;;;;;;0.23;0.23;;;;;;;;;;4981858;28;20688;-57
2023/11/06 01:17:43;;;;;;;0.20;0.20;;;;;;;;;;4965411;28;20233;-57
2023/11/06 01:20:12;;;;;;;0.73;0.10;;;;;;;;;;4974424;28;20254;-57
2023/11/06 01:22:40;;;;;;;0.20;0.20;;;;;;;;;;4974367;28;20623;-57
2023/11/06 01:25:07;;;;;;;0.20;0.20;;;;;;;;;;4974331;28;20242;-57
2023/11/06 01:27:35;;;;;;;0.40;0.20;;;;;;;;;;4972640;28;20726;-58
2023/11/06 01:30:02;;;;;;;0.60;0.50;;;;;;;;;;4974220;28;20204;-57
2023/11/06 01:32:29;;;;;;;0.47;0.43;;;;;;;;;;4985757;28;20229;-57
2023/11/06 01:34:56;;;;;;;0.60;0.57;;;;;;;;;;4993168;28;20204;-57
2023/11/06 01:37:26;;;;;;;0.27;0.27;;;;;;;;;;4979811;28;20246;-57
2023/11/06 01:39:53;;;;;;;0.30;0.30;;;;;;;;;;4973342;28;20254;-57
2023/11/06 01:42:20;;;;;;;0.63;0.57;;;;;;;;;;4978513;28;20279;-57
2023/11/06 01:44:47;;;;;;;0.20;0.20;;;;;;;;;;4979432;28;20273;-57
2023/11/06 01:47:15;;;;;;;1.70;0.40;;;;;;;;;;4981804;28;20204;-56
2023/11/06 01:49:44;;;;;;;0.40;0.13;;;;;;;;;;4973961;28;20648;-57
2023/11/06 01:52:14;;;;;;;0.20;0.20;;;;;;;;;;4980599;28;20198;-57
2023/11/06 01:54:42;;;;;;;0.30;0.23;;;;;;;;;;4985245;28;20237;-57
2023/11/06 01:57:10;;;;;;;0.33;0.20;;;;;;;;;;4979570;28;20642;-57
2023/11/06 01:59:37;;;;;;;0.40;0.27;;;;;;;;;;4979963;28;20207;-56
2023/11/06 02:02:05;;;;;;;0.30;0.30;;;;;;;;;;4982541;28;20723;-57
2023/11/06 02:04:33;;;;;;;0.37;0.37;;;;;;;;;;4992811;28;20259;-56
2023/11/06 02:07:00;;;;;;;0.30;0.27;;;;;;;;;;4987052;28;20262;-57
2023/11/06 02:09:29;;;;;;;0.30;0.30;;;;;;;;;;4980891;28;20230;-56
2023/11/06 02:11:58;;;;;;;0.20;0.20;;;;;;;;;;4979206;28;20202;-57
2023/11/06 02:14:25;;;;;;;1.13;0.30;;;;;;;;;;4972762;28;20807;-57
2023/11/06 02:16:52;;;;;;;0.77;0.30;;;;;;;;;;4970843;28;20204;-57
2023/11/06 02:19:21;;;;;;;0.60;0.40;;;;;;;;;;4971546;28;20232;-56
2023/11/06 02:21:53;;;;;;;2.00;0.20;;;;;;;;;;4973022;28;20223;-57
2023/11/06 02:24:23;;;;;;;0.27;0.27;;;;;;;;;;4968535;28;20560;-56
2023/11/06 02:26:54;;;;;;;0.30;0.30;;;;;;;;;;4963645;28;20212;-57
2023/11/06 02:29:21;;;;;;;0.50;0.30;;;;;;;;;;4974460;28;20225;-56
2023/11/06 02:41:37;;;;;;;0.93;0.30;;;8.80;99.90;;;;;;4978038;28;20333;-57
2023/11/06 02:44:05;;;;;;;0.33;0.33;;;8.90;99.90;;;;;;4975458;28;20206;-56
2023/11/06 02:46:32;;;;;;;0.30;0.30;;;8.90;99.90;;;;;;4983760;28;20264;-56
2023/11/06 02:48:59;;;;;;;0.27;0.20;;;8.80;99.90;;;;;;4984345;28;20261;-57
2023/11/06 02:51:26;;;;;;;0.50;0.50;;;8.70;99.90;;;;;;4977255;28;20253;-56
2023/11/06 02:53:53;;;;;;;1.07;0.57;;;8.70;99.90;;;;;;4984253;28;20265;-59
2023/11/06 02:56:20;;;;;;;1.13;0.30;;;8.70;99.90;;;;;;4972862;28;20270;-57
2023/11/06 02:58:48;;;;;;;0.30;0.30;;;8.60;99.90;;;;;;4973452;28;20235;-56
2023/11/06 03:01:15;;;;;;;0.70;0.33;;;8.60;99.90;;;;;;4972932;28;20270;-56
2023/11/06 03:03:42;;;;;;;0.40;0.40;;;8.50;99.90;;;;;;4982381;28;20214;-56
2023/11/06 03:06:10;;;;;;;0.37;0.37;;;8.40;99.90;;;;;;4970928;28;20265;-56
2023/11/06 03:08:37;;;;;;;0.40;0.40;;;8.40;99.90;;;;;;4977986;28;20227;-57
2023/11/06 03:11:05;;;;;;;0.37;0.30;;;8.40;99.90;;;;;;4975227;28;20204;-56
2023/11/06 03:13:32;;;;;;;0.20;0.20;;;8.30;99.90;;;;;;4972825;28;20394;-56
2023/11/06 03:16:01;;;;;;;0.53;0.53;;;8.30;99.90;;;;;;4971747;28;20342;-57
2023/11/06 03:18:28;;;;;;;0.40;0.40;;;8.30;99.90;;;;;;4971509;28;20638;-57
2023/11/06 03:20:55;;;;;;;0.57;0.20;;;8.30;99.90;;;;;;4980591;28;20239;-57
2023/11/06 03:23:23;;;;;;;0.40;0.40;;;8.30;99.90;;;;;;4972796;28;20262;-56
2023/11/06 03:25:49;;;;;;;0.47;0.40;;;8.50;99.90;;;;;;4972512;28;20261;-57
2023/11/06 03:28:16;;;;;;;0.67;0.30;;;8.40;99.90;;;;;;4978620;28;20230;-57
2023/11/06 03:30:44;;;;;;;0.37;0.37;;;8.50;99.90;;;;;;4976716;28;20265;-56
2023/11/06 03:33:12;;;;;;;0.40;0.40;;;8.50;99.90;;;;;;4971373;28;20210;-57
2023/11/06 03:35:39;;;;;;;0.40;0.40;;;8.50;99.90;;;;;;4977354;28;20280;-57
2023/11/06 03:38:07;;;;;;;1.03;0.40;;;8.40;99.90;;;;;;4987997;28;20329;-56
2023/11/06 03:40:34;;;;;;;0.40;0.40;;;8.40;99.90;;;;;;4985461;28;20203;-57
2023/11/06 03:43:01;;;;;;;0.70;0.40;;;8.40;99.90;;;;;;4990811;28;20288;-56
2023/11/06 03:45:28;;;;;;;0.80;0.50;;;8.40;99.90;;;;;;4980257;28;20276;-57
2023/11/06 03:47:55;;;;;;;0.63;0.63;;;8.40;99.90;;;;;;4971101;28;20301;-57
2023/11/06 03:50:23;;;;;;;0.50;0.50;;;8.40;99.90;;;;;;4974279;28;20661;-56
2023/11/06 03:52:50;;;;;;;1.27;0.50;;;8.50;99.90;;;;;;4983770;28;20205;-56
2023/11/06 03:55:17;;;;;;;0.40;0.30;;;8.50;99.90;;;;;;4991323;28;20621;-56
2023/11/06 03:57:44;;;;;;;0.20;0.20;;;8.60;99.90;;;;;;4991555;28;20284;-56
2023/11/06 04:00:12;;;;;;;0.27;0.27;;;8.50;99.90;;;;;;4978667;28;20266;-57
2023/11/06 04:02:39;;;;;;;0.20;0.20;;;8.50;99.90;;;;;;4969391;28;20230;-56
2023/11/06 04:05:07;;;;;;;0.20;0.20;;;8.50;99.90;;;;;;4979444;28;20254;-56
2023/11/06 04:07:35;;;;;;;0.10;0.10;;;8.50;99.90;;;;;;4980267;28;20317;-56
2023/11/06 04:10:02;;;;;;;0.20;0.20;;;8.50;99.90;;;;;;4979674;28;20206;-56
2023/11/06 04:12:29;;;;;;;1.37;0.23;;;8.50;99.90;;;;;;4984099;28;20210;-56
2023/11/06 04:14:57;;;;;;;0.20;0.20;;;8.60;99.90;;;;;;4977331;28;20745;-56
2023/11/06 04:17:26;;;;;;;0.53;0.27;;;8.60;99.90;;;;;;4965804;28;20273;-56
2023/11/06 04:19:53;;;;;;;2.17;0.20;;;8.60;99.90;;;;;;4982148;28;20209;-57
2023/11/06 04:22:21;;;;;;;0.10;0.10;;;8.60;99.90;;;;;;4985037;28;20296;-56
2023/11/06 04:24:49;;;;;;;0.10;0.10;;;8.60;99.90;;;;;;4994709;28;20249;-56
2023/11/06 04:27:16;;;;;;;0.93;0.20;;;8.50;99.90;;;;;;4985994;28;20590;-57
2023/11/06 04:29:43;;;;;;;0.23;0.23;;;8.50;99.90;;;;;;4974242;28;20624;-56
2023/11/06 04:32:10;;;;;;;0.40;0.20;;;8.40;99.90;;;;;;4982214;28;20338;-57
2023/11/06 04:34:37;;;;;;;0.60;0.33;;;8.40;99.90;;;;;;4973215;28;20242;-56
2023/11/06 04:37:04;;;;;;;0.30;0.30;;;8.40;99.90;;;;;;4974859;28;20678;-56
2023/11/06 04:39:31;;;;;;;0.00;0.00;;;8.40;99.90;;;;;;4974143;28;20235;-56
2023/11/06 04:41:59;;;;;;;0.10;0.10;;;8.50;99.90;;;;;;4973528;28;20227;-56
2023/11/06 04:44:27;;;;;;;0.40;0.10;;;8.60;99.90;;;;;;4967030;28;20203;-56
2023/11/06 04:46:54;;;;;;;0.50;0.33;;;8.50;99.90;;;;;;4971373;28;20643;-57
2023/11/06 04:49:20;;;;;;;0.87;0.30;;;8.60;99.90;;;;;;4968780;28;20225;-57
2023/11/06 04:51:47;;;;;;;0.30;0.10;;;8.50;99.90;;;;;;4970986;28;20733;-57
2023/11/06 04:54:14;;;;;;;0.20;0.20;;;8.50;99.90;;;;;;4982502;28;20198;-56
2023/11/06 04:56:43;;;;;;;0.30;0.30;;;;;;;;;;4979778;28;20195;-57
2023/11/06 04:59:11;;;;;;;0.20;0.20;;;8.40;99.90;;;;;;4976179;28;20261;-57
2023/11/06 05:01:38;;;;;;;0.23;0.20;;;8.40;99.90;;;;;;4974978;28;20204;-57
2023/11/06 05:04:05;;;;;;;0.20;0.20;;;;;;;;;;4973916;28;20209;-56
2023/11/06 05:06:33;;;;;;;0.73;0.40;;;;;;;;;;4982531;28;20197;-56
2023/11/06 05:09:01;;;;;;;1.50;0.50;;;;;;;;;;4982749;28;20225;-58
2023/11/06 05:11:29;;;;;;;0.60;0.60;;;;;;;;;;4982545;28;20675;-56
2023/11/06 05:13:56;;;;;;;0.40;0.40;;;;;;;;;;4990503;28;20202;-57
2023/11/06 05:16:29;;;;;;;0.50;0.40;;;;;;;;;;4991927;28;20674;-57
2023/11/06 05:18:57;;;;;;;0.57;0.30;;;;;;;;;;4981403;28;20227;-57
2023/11/06 05:21:26;;;;;;;0.40;0.10;;;;;;;;;;4978827;28;20637;-57
2023/11/06 05:23:54;;;;;;;0.10;0.10;;;;;;;;;;4975941;28;20261;-58
2023/11/06 05:26:22;;;;;;;0.20;0.20;;;;;;;;;;4975279;28;20266;-57
2023/11/06 05:28:50;;;;;;;0.73;0.17;;;;;;;;;;4974316;28;20224;-57
2023/11/06 05:31:17;;;;;;;0.30;0.20;;;;;;;;;;4974228;28;20568;-57
2023/11/06 05:33:46;;;;;;;0.20;0.20;;;;;;;;;;4972412;28;20203;-56
2023/11/06 05:36:15;;;;;;;0.10;0.10;;;;;;;;;;4973431;28;20207;-56
2023/11/06 05:38:42;;;;;;;0.20;0.20;;;;;;;;;;4979399;28;20235;-56
2023/11/06 05:41:11;;;;;;;0.30;0.30;;;;;;;;;;4976326;28;20202;-57
2023/11/06 05:43:38;;;;;;;0.70;0.40;;;;;;;;;;4973768;28;20233;-56
2023/11/06 05:46:06;;;;;;;0.40;0.40;;;;;;;;;;4974023;28;20227;-57
2023/11/06 05:48:33;;;;;;;1.07;0.60;;;;;;;;;;4972239;28;20233;-56
2023/11/06 05:51:02;;;;;;;0.67;0.40;;;;;;;;;;4974069;28;20262;-56
2023/11/06 05:53:29;;;;;;;1.40;0.40;;;;;;;;;;4965505;28;20198;-56
2023/11/06 05:55:56;;;;;;;0.40;0.40;;;;;;;;;;4973302;28;20198;-56
2023/11/06 05:58:24;;;;;;;0.30;0.30;;;;;;;;;;4973658;28;20273;-56
2023/11/06 06:00:51;;;;;;;0.40;0.40;;;;;;;;;;4973664;28;20218;-57
2023/11/06 06:03:20;;;;;;;3.20;0.50;;;;;;;;;;4972561;28;20273;-56
2023/11/06 06:05:47;;;;;;;0.28;0.28;;;;;;;;;;4973110;28;20426;-56
2023/11/06 06:08:16;;;;;;;0.50;0.50;;;;;;;;;;5003352;23;20227;-57
2023/11/06 06:10:43;;;;;;;0.50;0.30;;;;;;;;;;4992181;28;20289;-58
2023/11/06 06:13:11;;;;;;;0.27;0.27;;;;;;;;;;4992481;28;20245;-57
2023/11/06 06:15:38;;;;;;;0.50;0.20;;;;;;;;;;4992091;28;20239;-58
2023/11/06 06:18:05;;;;;;;1.00;0.30;;;;;;;;;;4990846;28;20280;-58
2023/11/06 06:20:32;;;;;;;2.50;0.20;;;;;;;;;;4992098;28;20453;-57
2023/11/06 06:23:00;;;;;;;0.20;0.20;;;;;;;;;;4992462;28;20271;-58
2023/11/06 06:25:29;;;;;;;0.77;0.20;;;;;;;;;;4998149;28;20396;-58
2023/11/06 06:27:56;;;;;;;0.40;0.40;;;;;;;;;;4992308;28;20599;-58
2023/11/06 06:30:25;;;;;;;0.53;0.20;;;;;;;;;;4992326;28;20729;-57
2023/11/06 06:32:52;;;;;;;1.43;0.20;;;;;;;;;;4990841;28;20203;-58
2023/11/06 06:35:19;;;;;;;0.20;0.20;;;;;;;;;;4994529;28;20210;-57
2023/11/06 06:37:46;;;;;;;0.80;0.27;;;;;;;;;;4991946;28;20272;-58
2023/11/06 06:40:14;;;;;;;0.10;0.10;;;;;;;;;;4992208;28;20206;-58
2023/11/06 06:42:43;;;;;;;0.50;0.20;;;;;;;;;;4991822;28;20230;-57
2023/11/06 06:45:10;;;;;;;0.20;0.20;;;;;;;;;;4985717;28;20825;-57
2023/11/06 06:47:38;;;;;;;0.20;0.20;;;;;;;;;;4985643;28;20226;-57
2023/11/06 06:50:05;;;;;;;0.20;0.20;;;;;;;;;;4985358;28;20265;-56
2023/11/06 06:52:32;;;;;;;2.17;0.50;;;;;;;;;;4983177;28;20724;-57
2023/11/06 06:55:00;;;;;;;2.10;0.20;;;;;;;;;;4982405;28;20229;-57
2023/11/06 06:57:27;;;;;;;0.30;0.30;;;;;;;;;;4982629;28;20280;-57
2023/11/06 06:59:56;;;;;;;2.60;0.30;;;;;;;;;;4983739;28;20283;-57
2023/11/06 07:02:23;;;;;;;0.20;0.20;;;;;;;;;;4983320;28;20277;-56
2023/11/06 07:04:50;;;;;;;0.73;0.40;;;;;;;;;;4983088;28;20253;-57
2023/11/06 07:07:18;;;;;;;0.50;0.30;;;;;;;;;;4988556;28;20234;-57
2023/11/06 07:09:45;;;;;;;0.13;0.13;;;;;;;;;;4990316;28;20197;-57
2023/11/06 07:12:14;;;;;;;0.20;0.20;;;;;;;;;;4990728;28;20760;-57
2023/11/06 07:14:41;;;;;;;2.50;0.57;;;;;;;;;;4985051;28;20205;-57
2023/11/06 07:17:09;;;;;;;0.80;0.70;;;;;;;;;;4981396;28;20449;-58
2023/11/06 07:19:37;;;;;;;0.57;0.57;;;;;;;;;;4982733;28;20203;-58
2023/11/06 07:22:04;;;;;;;0.97;0.60;;;;;;;;;;4984571;28;20206;-58
2023/11/06 07:24:31;;;;;;;0.80;0.40;;;;;;;;;;4981487;28;20642;-58
2023/11/06 07:26:59;;;;;;;0.20;0.20;;;;;;;;;;4987085;28;20205;-58
2023/11/06 07:29:26;;;;;;;1.20;0.50;;;;;;;;;;4989220;28;20206;-55
2023/11/06 07:31:53;;;;;;;2.77;0.37;;;;;;;;;;4984389;28;20265;-56
2023/11/06 07:34:22;;;;;;;1.10;0.90;;;;;;;;;;4980738;28;20202;-57
2023/11/06 07:36:49;;;;;;;0.40;0.40;;;;;;;;;;4983474;28;21406;-58
2023/11/06 07:39:17;;;;;;;0.70;0.50;;;;;;;;;;4982657;28;20218;-58
2023/11/06 07:41:45;;;;;;;1.67;0.30;;;;;;;;;;4982435;28;20229;-59
2023/11/06 07:44:12;;;;;;;0.30;0.30;;;;;;;;;;4987961;28;20280;-57
2023/11/06 07:46:39;;;;;;;1.43;0.40;;;;;;;;;;4987428;28;20202;-56
2023/11/06 07:49:06;;;;;;;3.27;0.80;;;;;;;;;;4988996;28;20723;-57
2023/11/06 07:51:36;;;;;;;0.97;0.30;;;;;;;;;;4983194;28;20202;-57
2023/11/06 07:54:03;;;;;;;0.23;0.23;;;;;;;;;;4988115;28;20253;-57
2023/11/06 07:56:31;;;;;;;0.93;0.33;;;;;;;;;;4991074;28;20260;-58
2023/11/06 07:58:58;;;;;;;0.30;0.30;;;;;;;;;;4989907;28;20229;-57
2023/11/06 08:01:28;;;;;;;3.00;0.30;;;;;;;;;;4994581;28;20329;-57
2023/11/06 08:03:55;;;;;;;0.87;0.30;;;;;;;;;;4992361;28;20784;-57
2023/11/06 08:06:26;;;;;;;1.40;0.30;;;;;;;;;;4986716;28;20208;-57
2023/11/06 08:08:55;;;;;;;1.13;0.43;;;;;;;;;;4985225;28;20244;-56
2023/11/06 08:11:23;;;;;;;0.47;0.40;;;;;;;;;;4993564;28;20205;-57
2023/11/06 08:13:50;;;;;;;0.20;0.20;;;;;;;;;;4986152;28;20749;-56
2023/11/06 08:16:17;;;;;;;0.77;0.40;;;;;;;;;;4989549;28;20203;-59
2023/11/06 08:18:45;;;;;;;0.80;0.30;;;;;;;;;;4991499;28;20235;-57
2023/11/06 08:21:12;;;;;;;1.13;0.20;;;;;;;;;;4990100;28;20659;-57
2023/11/06 08:23:39;;;;;;;0.40;0.20;;;;;;;;;;4991516;28;20219;-57
2023/11/06 08:26:08;;;;;;;2.63;0.10;;;;;;;;;;4987414;28;20202;-57
2023/11/06 08:28:35;;;;;;;0.37;0.37;;;;;;;;;;4993848;28;20638;-57
2023/11/06 08:31:04;;;;;;;1.70;0.30;;;;;;;;;;4992696;28;20207;-57
2023/11/06 08:33:31;;;;;;;0.50;0.33;;;;;;;;;;4990736;28;20218;-57
2023/11/06 08:35:58;;;;;;;3.53;0.37;;;;;;;;;;4991064;28;20207;-57
2023/11/06 08:38:26;;;;;;;0.20;0.20;;;;;;;;;;4994036;28;20222;-57
2023/11/06 08:40:53;;;;;;;0.20;0.20;;;;;;;;;;4992548;28;20206;-57
2023/11/06 08:43:22;;;;;;;0.30;0.20;;;;;;;;;;4990617;28;20229;-57
2023/11/06 08:45:49;;;;;;;0.50;0.43;;;;;;;;;;4991792;28;20206;-57
2023/11/06 08:48:16;;;;;;;0.33;0.20;;;;;;;;;;4990384;28;20636;-56
2023/11/06 08:50:43;;;;;;;1.03;0.57;;;;;;;;;;4988992;28;20203;-57
2023/11/06 08:53:11;;;;;;;0.20;0.20;;;;;;;;;;4991237;28;20254;-57
2023/11/06 08:55:38;;;;;;;0.20;0.20;;;;;;;;;;4989522;28;20271;-59
2023/11/06 08:58:09;;;;;;;0.57;0.10;;;;;;;;;;4992422;28;20273;-57
2023/11/06 09:00:39;;;;;;;0.77;0.20;;;;;;;;;;4994016;28;20199;-57
2023/11/06 09:03:09;;;;;;;0.20;0.03;;;;;;;;;;4991839;28;20641;-57
2023/11/06 09:05:36;;;;;;;0.63;0.10;;;;;;;;;;4992216;28;20206;-57
2023/11/06 09:08:04;;;;;;;0.10;0.10;;;;;;;;;;4989669;28;20252;-57
2023/11/06 09:10:31;;;;;;;0.10;0.10;;;;;;;;;;4992989;28;20243;-58
2023/11/06 09:12:58;;;;;;;0.20;0.20;;;;;;;;;;4991962;28;20721;-57
2023/11/06 09:15:26;;;;;;;0.10;0.10;;;;;;;;;;4991774;28;20939;-57
2023/11/06 09:17:54;;;;;;;0.10;0.10;;;;;;;;;;4991398;28;20278;-57
2023/11/06 09:20:21;;;;;;;1.70;0.20;;;;;;;;;;4993003;28;20290;-57
2023/11/06 09:22:49;;;;;;;0.10;0.10;;;;;;;;;;4993339;28;20258;-57
2023/11/06 09:25:16;;;;;;;0.43;0.40;;;;;;;;;;4986937;28;20218;-57
2023/11/06 09:27:44;;;;;;;0.03;0.03;;;;;;;;;;4990953;28;20677;-57
2023/11/06 09:30:12;;;;;;;0.10;0.10;;;;;;;;;;4992687;28;20283;-57
2023/11/06 09:32:39;;;;;;;0.30;0.30;;;;;;;;;;4993070;28;20203;-57
2023/11/06 09:35:08;;;;;;;0.00;0.00;;;;;;;;;;4989481;28;20679;-58
2023/11/06 09:37:35;;;;;;;0.10;0.03;;;;;;;;;;4990718;28;20227;-58
2023/11/06 09:40:04;;;;;;;0.23;0.23;;;;;;;;;;4991716;28;20200;-57
2023/11/06 09:42:31;;;;;;;0.10;0.10;;;;;;;;;;4992127;28;20675;-57
2023/11/06 09:44:58;;;;;;;0.00;0.00;;;;;;;;;;4985850;28;20796;-57
2023/11/06 09:47:26;;;;;;;0.07;0.07;;;;;;;;;;4987904;28;20283;-57
2023/11/06 09:49:58;;;;;;;1.13;0.10;;;;;;;;;;4984382;28;20250;-57
2023/11/06 09:52:27;;;;;;;0.27;0.10;;;;;;;;;;4983794;28;20274;-57
2023/11/06 09:54:55;;;;;;;0.60;0.00;;;;;;;;;;4991823;28;20191;-57
2023/11/06 09:57:24;;;;;;;0.07;0.07;;;;;;;;;;4992454;28;20224;-57
2023/11/06 09:59:52;;;;;;;0.20;0.20;;;;;;;;;;4985313;28;20250;-57
2023/11/06 10:02:23;;;;;;;0.10;0.10;;;;;;;;;;4984472;28;20222;-57
2023/11/06 10:04:50;;;;;;;1.40;0.00;;;;;;;;;;4983953;28;20290;-57
2023/11/06 10:07:32;;;;;;;0.17;0.00;;;;;;;;;;4983907;28;20319;-57
2023/11/06 10:10:11;;;;;;;0.33;0.10;;;;;;;;;;4984992;28;20216;-58
2023/11/06 10:12:39;;;;;;;0.57;0.03;;;;;;;;;;4983930;28;20254;-57
2023/11/06 10:15:07;;;;;;;0.10;0.10;;;;;;;;;;4983490;28;20258;-57
2023/11/06 10:17:34;;;;;;;0.43;0.10;;;;;;;;;;4984274;28;20750;-57
2023/11/06 10:20:05;;;;;;;1.13;0.10;;;;;;;;;;4988306;28;20204;-57
2023/11/06 10:22:34;;;;;;;0.10;0.10;;;;;;;;;;4984605;28;20299;-57
2023/11/06 10:25:01;;;;;;;0.10;0.10;;;;;;;;;;4987142;28;20220;-57
2023/11/06 10:27:30;;;;;;;2.30;0.20;;;;;;;;;;4981725;28;20224;-57
2023/11/06 10:30:03;;;;;;;0.90;0.30;;;;;;;;;;4984144;28;20289;-58
2023/11/06 10:32:30;;;;;;;0.20;0.20;;;;;;;;;;4984288;28;20711;-57
2023/11/06 10:35:01;;;;;;;0.27;0.10;;;;;;;;;;4984039;28;20251;-57
2023/11/06 10:37:28;;;;;;;0.23;0.23;;;;;;;;;;4989548;28;20249;-57
2023/11/06 10:39:57;;;;;;;1.70;0.20;;;;;;;;;;4983745;28;20196;-57
2023/11/06 10:42:24;;;;;;;0.10;0.10;;;;;;;;;;4983528;28;20210;-57
2023/11/06 10:44:56;;;;;;;0.10;0.10;;;;;;;;;;4984109;28;20306;-57
2023/11/06 10:47:26;;;;;;;0.23;0.23;;;;;;;;;;4983789;28;20228;-57
2023/11/06 10:49:55;;;;;;;0.47;0.13;;;;;;;;;;4983183;28;20200;-57
2023/11/06 10:52:24;;;;;;;1.13;0.20;;;;;;;;;;4983148;28;20204;-57
2023/11/06 10:54:54;;;;;;;2.20;0.20;;;;;;;;;;4988507;28;20200;-57
2023/11/06 10:57:21;;;;;;;1.07;0.10;;;;;;;;;;4986201;28;20339;-56
2023/11/06 10:59:49;;;;;;;0.70;0.17;;;;;;;;;;4984168;28;20588;-57
2023/11/06 11:02:31;;;;;;;0.50;0.20;;;;;;;;;;4984555;28;20682;-58
2023/11/06 11:05:00;;;;;;;1.70;0.10;;;;;;;;;;4983337;28;20707;-57
2023/11/06 11:07:28;;;;;;;0.23;0.20;;;;;;;;;;4987673;28;20785;-59
2023/11/06 11:09:56;;;;;;;1.60;0.20;;;;;;;;;;4993148;28;20200;-56
2023/11/06 11:12:23;;;;;;;0.57;0.10;;;;;;;;;;4990906;28;20758;-57
2023/11/06 11:14:50;;;;;;;0.27;0.20;;;;;;;;;;4991997;28;20225;-57
2023/11/06 11:17:17;;;;;;;0.30;0.20;;;;;;;;;;4988990;28;20227;-56
2023/11/06 11:19:56;;;;;;;0.10;0.10;;;;;;;;;;4990915;28;20200;-58
2023/11/06 11:22:24;;;;;;;0.27;0.20;;;;;;;;;;4989528;28;20266;-57
2023/11/06 11:24:53;;;;;;;0.10;0.10;;;;;;;;;;4990480;28;20223;-56
2023/11/06 11:27:22;;;;;;;0.30;0.20;;;;;;;;;;4990715;28;20695;-57
2023/11/06 11:30:06;;;;;;;0.17;0.13;;;;;;;;;;4985537;28;20240;-57
2023/11/06 11:32:47;;;;;;;0.30;0.30;;;;;;;;;;4993887;28;20599;-56
2023/11/06 11:35:33;;;;;;;0.67;0.10;;;;;;;;;;4992767;28;20205;-57
2023/11/06 11:38:02;;;;;;;0.50;0.20;;;;;;;;;;4991495;28;20220;-56
2023/11/06 11:40:58;;;;;;;0.10;0.10;;;;;;;;;;4986572;28;20204;-56
2023/11/06 11:43:40;;;;;;;0.10;0.10;;;;;;;;;;4987903;28;20199;-56
2023/11/06 11:46:34;;;;;;;1.73;0.10;;;;;;;;;;4990323;28;20269;-57
2023/11/06 11:49:01;;;;;;;0.57;0.33;;;;;;;;;;4987440;28;20231;-57
2023/11/06 11:51:47;;;;;;;0.03;0.03;;;;;;;;;;4987001;28;20203;-56
2023/11/06 11:54:27;;;;;;;1.83;0.17;;;;;;;;;;4985887;28;20227;-56
2023/11/06 11:56:55;;;;;;;1.43;0.20;;;;;;;;;;4987054;28;20200;-57
2023/11/06 11:59:23;;;;;;;0.40;0.13;;;;;;;;;;4994406;28;20207;-57
2023/11/06 12:01:51;;;;;;;1.80;0.10;;;;;;;;;;4993148;28;20250;-56
2023/11/06 12:04:18;;;;;;;0.30;0.17;;;;;;;;;;4986777;28;20243;-57
2023/11/06 12:06:45;;;;;;;1.30;0.10;;;;;;;;;;4987521;28;20192;-57
2023/11/06 12:09:12;;;;;;;0.20;0.20;;;;;;;;;;4986306;28;20282;-56
2023/11/06 12:11:41;;;;;;;0.20;0.20;;;;;;;;;;4987045;28;20639;-57
2023/11/06 12:14:08;;;;;;;1.40;0.20;;;;;;;;;;4986050;28;20636;-56
2023/11/06 12:16:47;;;;;;;0.73;0.30;;;;;;;;;;4985884;28;20289;-58
2023/11/06 12:19:14;;;;;;;0.20;0.20;;;;;;;;;;4986192;28;20231;-58
2023/11/06 12:21:41;;;;;;;0.50;0.20;;;;;;;;;;4992815;28;20464;-58
2023/11/06 12:24:09;;;;;;;0.17;0.17;;;;;;;;;;4984797;28;20255;-57
2023/11/06 12:26:37;;;;;;;0.10;0.10;;;;;;;;;;4986115;28;20200;-57
2023/11/06 12:29:05;;;;;;;0.47;0.10;;;;;;;;;;4986346;28;20286;-58
2023/11/06 12:31:37;;;;;;;0.30;0.20;;;;;;;;;;4986488;28;20271;-57
2023/11/06 12:34:05;;;;;;;0.83;0.20;;;;;;;;;;4989273;28;20291;-58
2023/11/06 12:36:35;;;;;;;0.20;0.20;;;;;;;;;;4990766;28;20200;-58
2023/11/06 12:39:02;;;;;;;1.00;0.10;;;;;;;;;;4990785;28;20220;-59
2023/11/06 12:41:38;;;;;;;0.10;0.10;;;;;;;;;;4990969;28;20620;-59
2023/11/06 12:44:08;;;;;;;0.10;0.10;;;;;;;;;;4985898;28;20195;-62
2023/11/06 12:46:45;;;;;;;0.40;0.20;;;;;;;;;;4986946;28;20292;-60
2023/11/06 12:49:13;;;;;;;1.30;0.13;;;;;;;;;;4986189;28;20271;-59
2023/11/06 12:51:40;;;;;;;0.20;0.20;;;;;;;;;;4986162;28;20702;-60
2023/11/06 12:54:09;;;;;;;1.87;0.20;;;;;;;;;;4985194;28;20475;-61
2023/11/06 12:56:37;;;;;;;0.30;0.10;;;;;;;;;;4987224;28;20246;-60
2023/11/06 12:59:04;;;;;;;0.30;0.20;;;;;;;;;;4985749;28;20224;-58
2023/11/06 13:01:34;;;;;;;0.50;0.10;;;;;;;;;;4984381;28;20622;-58
2023/11/06 13:04:06;;;;;;;1.00;0.10;;;;;;;;;;4985920;28;20262;-58
2023/11/06 13:06:33;;;;;;;0.17;0.17;;;;;;;;;;4986004;28;20760;-59
2023/11/06 13:09:00;;;;;;;1.47;0.10;;;;;;;;;;4992485;28;20281;-59
2023/11/06 13:11:29;;;;;;;0.10;0.10;;;;;;;;;;4985433;28;20211;-59
2023/11/06 13:13:56;;;;;;;0.43;0.10;;;;;;;;;;4984791;28;20258;-59
2023/11/06 13:16:28;;;;;;;0.83;0.10;;;;;;;;;;4985457;28;20583;-59
2023/11/06 13:18:57;;;;;;;0.10;0.10;;;;;;;;;;4985594;28;20234;-59
2023/11/06 13:21:30;;;;;;;0.83;0.10;;;;;;;;;;4985163;28;20227;-59
2023/11/06 13:23:57;;;;;;;3.03;0.17;;;;;;;;;;4985127;28;20254;-60
2023/11/06 13:26:26;;;;;;;0.33;0.20;;;;;;;;;;4985491;28;20745;-57
2023/11/06 13:28:54;;;;;;;0.23;0.23;;;;;;;;;;4984940;28;20224;-62
2023/11/06 13:31:27;;;;;;;2.00;0.30;;;;;;;;;;4985561;28;20290;-67
2023/11/06 13:33:54;;;;;;;0.47;0.10;;;;;;;;;;4984204;28;20211;-68
2023/11/06 13:36:26;;;;;;;1.20;0.17;;;;;;;;;;4983496;28;20641;-67
2023/11/06 13:38:54;;;;;;;1.20;0.20;;;;;;;;;;4984655;28;20228;-69
2023/11/06 13:41:21;;;;;;;1.50;0.20;;;;;;;;;;4984712;28;20211;-66
2023/11/06 13:43:49;;;;;;;0.50;0.33;;;;;;;;;;4985260;28;20250;-65
2023/11/06 13:46:17;;;;;;;0.20;0.10;;;;;;;;;;4983794;28;20263;-62
2023/11/06 13:48:47;;;;;;;0.50;0.20;;;;;;;;;;4984658;28;20298;-63
2023/11/06 13:51:16;;;;;;;0.23;0.20;;;;;;;;;;4984008;28;20219;-62
2023/11/06 13:53:47;;;;;;;0.43;0.20;;;;;;;;;;4985475;28;20215;-61
2023/11/06 13:56:19;;;;;;;0.73;0.23;;;;;;;;;;4990944;28;20283;-61
2023/11/06 13:58:47;;;;;;;0.97;0.23;;;;;;;;;;4985153;28;21136;-62
2023/11/06 14:01:14;;;;;;;1.23;0.30;;;;;;;;;;4984165;28;20695;-62
2023/11/06 14:03:47;;;;;;;0.30;0.10;;;;;;;;;;4984212;28;20269;-63
2023/11/06 14:06:17;;;;;;;0.20;0.20;;;;;;;;;;4984184;28;20227;-63
2023/11/06 14:08:45;;;;;;;2.10;0.20;;;;;;;;;;4984075;28;20232;-62
2023/11/06 14:11:13;;;;;;;1.00;0.30;;;;;;;;;;4984150;28;20258;-63
2023/11/06 14:13:41;;;;;;;2.03;0.40;;;;;;;;;;4983810;28;20222;-62
2023/11/06 14:16:11;;;;;;;1.03;0.40;;;;;;;;;;4983951;28;20274;-63
2023/11/06 14:18:38;;;;;;;1.37;0.93;;;;;;;;;;4983774;28;20227;-62
2023/11/06 14:21:07;;;;;;;0.70;0.70;;;;;;;;;;4985070;28;20632;-62
2023/11/06 14:23:35;;;;;;;0.43;0.30;;;;;;;;;;4991800;28;20203;-62
2023/11/06 14:26:06;;;;;;;0.13;0.13;;;;;;;;;;4986442;28;20278;-63
2023/11/06 14:28:33;;;;;;;1.10;0.20;;;;;;;;;;4989346;28;20238;-62
2023/11/06 14:31:01;;;;;;;0.23;0.23;;;;;;;;;;4983708;28;20199;-62
2023/11/06 14:33:29;;;;;;;2.43;0.27;;;;;;;;;;4983006;28;20326;-62
2023/11/06 14:35:58;;;;;;;1.10;0.20;;;;;;;;;;4985065;28;20211;-62
2023/11/06 14:38:26;;;;;;;0.33;0.20;;;;;;;;;;4982213;28;20228;-63
2023/11/06 14:40:54;;;;;;;1.17;0.20;;;;;;;;;;4983362;28;20200;-62